Time;durP1;ratioP1;P1;durP2;ratioP2;P2;SDS_P1;SDS_P2;PMS_P1;PMS_P2;Temp;Humidity;BMP_temperature;BMP_pressure;BME280_temperature;BME280_humidity;BME280_pressure;Samples;Min_cycle;Max_cycle;Signal;HPM_P1;HPM_P2
2023/10/08 00:02:40;;;;;;;9.27;8.77;;;;;;;;;;4147239;28;20054;-64
2023/10/08 00:04:44;;;;;;;9.32;8.93;;;;;;;;;;4147527;28;20092;-64
2023/10/08 00:06:46;;;;;;;9.90;9.32;;;;;;;;;;4159689;28;20045;-64
2023/10/08 00:08:48;;;;;;;9.90;9.40;;;;;;;;;;4163713;28;20045;-64
2023/10/08 00:10:51;;;;;;;8.23;8.02;;;;;;;;;;4163933;28;20489;-63
2023/10/08 00:12:52;;;;;;;;;;;;;;;;;;4179307;28;20452;-63
2023/10/08 00:14:54;;;;;;;8.75;8.45;;;;;;;;;;4163647;28;19925;-64
2023/10/08 00:16:56;;;;;;;8.27;7.97;;;;;;;;;;4163787;28;20049;-63
2023/10/08 00:19:02;;;;;;;9.30;8.77;;;;;;;;;;4139145;28;20057;-63
2023/10/08 00:21:16;;;;;;;10.13;9.43;;;;;;;;;;4131092;28;20042;-64
2023/10/08 00:23:18;;;;;;;9.20;8.63;;;;;;;;;;4131158;28;20443;-63
2023/10/08 00:25:20;;;;;;;10.40;9.70;;;;;;;;;;4143534;28;20034;-63
2023/10/08 00:27:22;;;;;;;8.03;7.70;;;;;;;;;;4147274;28;20414;-64
2023/10/08 00:29:24;;;;;;;9.15;8.50;;;;;;;;;;4147255;28;20048;-64
2023/10/08 00:31:49;;;;;;;8.95;8.23;;;;;;;;;;4147107;28;20041;-63
2023/10/08 00:33:49;;;;;;;8.68;8.23;;;;;;;;;;4134900;28;20100;-63
2023/10/08 00:35:50;;;;;;;9.93;9.50;;;;;;;;;;4131042;28;20043;-64
2023/10/08 00:37:53;;;;;;;10.20;9.70;;;;;;;;;;4130818;28;20150;-65
2023/10/08 00:39:56;;;;;;;8.93;8.38;;;;;;;;;;4130951;28;20038;-63
2023/10/08 00:41:58;;;;;;;9.07;8.70;;;;;;;;;;4130812;28;20061;-64
2023/10/08 00:44:05;;;;;;;10.77;10.07;;;;;;;;;;4131108;28;20097;-63
2023/10/08 00:48:29;;;;;;;9.43;8.73;;;;;;;;;;4149964;28;20414;-64
2023/10/08 00:50:42;;;;;;;9.30;8.80;;;;;;;;;;4149973;28;20077;-63
2023/10/08 00:52:57;;;;;;;9.20;8.60;;;;;;;;;;4149993;28;20045;-64
2023/10/08 00:57:07;;;;;;;9.20;8.77;;;;;;;;;;4149864;28;20092;-63
2023/10/08 00:59:12;;;;;;;8.93;8.43;;;;;;;;;;4148939;28;20037;-64
2023/10/08 01:01:16;;;;;;;9.48;8.98;;;;;;;;;;4149850;28;20038;-65
2023/10/08 01:03:19;;;;;;;9.93;9.52;;;;;;;;;;4147115;28;20073;-64
2023/10/08 01:07:44;;;;;;;9.65;9.05;;;;;;;;;;4166126;28;20502;-64
2023/10/08 01:10:00;;;;;;;8.73;8.23;;;;;;;;;;4149905;28;20036;-64
2023/10/08 01:12:14;;;;;;;9.75;9.30;;;;;;;;;;4149713;28;20048;-64
2023/10/08 01:14:20;;;;;;;9.73;9.02;;;;;;;;;;4153229;28;20319;-64
2023/10/08 01:16:22;;;;;;;10.00;9.30;;;;;;;;;;4166100;28;20045;-63
2023/10/08 01:18:32;;;;;;;10.27;9.35;;;;;;;;;;4165890;28;20731;-64
2023/10/08 01:20:34;;;;;;;10.05;9.60;;;;;;;;;;4165811;28;20049;-64
2023/10/08 01:22:38;;;;;;;10.88;10.25;;;;;;;;;;4149704;28;20056;-63
2023/10/08 01:24:42;;;;;;;9.60;8.93;;;;;;;;;;4149501;28;20049;-64
2023/10/08 01:26:45;;;;;;;10.48;9.70;;;;;;;;;;4149690;28;20042;-64
2023/10/08 01:28:46;;;;;;;9.38;8.98;;;;;;;;;;4149477;28;20042;-63
2023/10/08 01:30:53;;;;;;;9.23;8.83;;;;;;;;;;4148297;28;20096;-63
2023/10/08 01:32:55;;;;;;;10.43;9.77;;;;;;;;;;4149342;28;20038;-64
2023/10/08 01:34:59;;;;;;;11.02;10.27;;;;;;;;;;4149384;28;20042;-63
2023/10/08 01:37:05;;;;;;;11.35;10.73;;;;;;;;;;4149254;28;20080;-64
2023/10/08 01:39:15;;;;;;;9.45;8.73;;;;;;;;;;4149021;28;20096;-63
2023/10/08 01:41:20;;;;;;;9.75;9.23;;;;;;;;;;4149285;28;20388;-64
2023/10/08 01:43:22;;;;;;;9.48;9.07;;;;;;;;;;4149378;28;20507;-63
2023/10/08 01:45:24;;;;;;;9.90;9.15;;;;;;;;;;4149213;28;20049;-63
2023/10/08 01:47:27;;;;;;;;;;;;;;;;;;4149529;28;20038;-63
2023/10/08 01:49:33;;;;;;;11.07;10.40;;;;;;;;;;4149309;28;19921;-63
2023/10/08 01:51:39;;;;;;;9.82;9.00;;;;;;;;;;4148902;28;20069;-63
2023/10/08 01:53:41;;;;;;;10.25;9.75;;;;;;;;;;4149161;28;20136;-63
2023/10/08 01:55:49;;;;;;;10.05;9.57;;;;;;;;;;4148942;28;20128;-64
2023/10/08 01:57:53;;;;;;;10.90;10.25;;;;;;;;;;4148477;28;20054;-64
2023/10/08 01:59:55;;;;;;;10.10;9.60;;;;;;;;;;4148832;28;20045;-64
2023/10/08 02:01:57;;;;;;;9.88;9.25;;;;;;;;;;4148818;28;20042;-64
2023/10/08 02:03:59;;;;;;;8.60;8.10;;;;;;;;;;4148822;28;20121;-65
2023/10/08 02:06:05;;;;;;;9.35;8.82;;;;;;;;;;4163574;28;20120;-64
2023/10/08 02:08:08;;;;;;;10.40;9.80;;;;;;;;;;4165189;28;20037;-64
2023/10/08 02:10:10;;;;;;;9.52;9.13;;;;;;;;;;4161976;28;20037;-64
2023/10/08 02:12:14;;;;;;;;;;;;;;;;;;4133025;28;20038;-64
2023/10/08 02:14:20;;;;;;;8.88;8.23;;;;;;;;;;4132521;28;20008;-64
2023/10/08 02:16:22;;;;;;;9.73;9.23;;;;;;;;;;4132814;28;20046;-63
2023/10/08 02:18:25;;;;;;;10.00;9.32;;;;;;;;;;4145520;28;20124;-64
2023/10/08 02:20:27;;;;;;;11.65;10.57;;;;;;;;;;4148639;28;20050;-64
2023/10/08 02:22:29;;;;;;;8.93;8.50;;;;;;;;;;4148676;28;20046;-64
2023/10/08 02:24:31;;;;;;;9.50;8.93;;;;;;;;;;4148626;28;20046;-63
2023/10/08 02:26:34;;;;;;;11.85;11.15;;;;;;;;;;4148595;28;20564;-63
2023/10/08 02:28:38;;;;;;;9.45;8.85;;;;;;;;;;4148547;28;20096;-63
2023/10/08 02:30:41;;;;;;;10.30;9.70;;;;;;;;;;4148608;28;20517;-64
2023/10/08 02:32:42;;;;;;;10.50;10.00;;;;;;;;;;4148235;28;20120;-64
2023/10/08 02:34:44;;;;;;;10.43;9.82;;;;;;;;;;4148422;28;20438;-64
2023/10/08 02:36:49;;;;;;;9.38;8.98;;;;;;;;;;4148475;28;20401;-64
2023/10/08 02:38:54;;;;;;;10.00;9.23;;;;;;;;;;4148393;28;20088;-65
2023/10/08 02:40:56;;;;;;;9.65;9.15;;;;;;;;;;4148525;28;20046;-64
2023/10/08 02:42:58;;;;;;;9.75;9.25;;;;;;;;;;4148450;28;20048;-64
2023/10/08 02:45:02;;;;;;;9.43;8.95;;;;;;;;;;4148396;28;20402;-64
2023/10/08 02:47:04;;;;;;;10.68;9.98;;;;;;;;;;4139343;28;20042;-64
2023/10/08 02:49:12;;;;;;;10.85;10.32;;;;;;;;;;4132047;28;20046;-64
2023/10/08 02:51:14;;;;;;;9.82;9.23;;;;;;;;;;4134120;28;20042;-63
2023/10/08 02:53:21;;;;;;;10.20;9.60;;;;;;;;;;4148233;28;20049;-65
2023/10/08 02:55:27;;;;;;;10.05;9.32;;;;;;;;;;4148235;28;20056;-65
2023/10/08 02:57:30;;;;;;;10.80;9.88;;;;;;;;;;4148171;28;20042;-63
2023/10/08 02:59:41;;;;;;;10.63;10.10;;;;;;;;;;4148194;28;20077;-64
2023/10/08 03:01:43;;;;;;;9.75;9.25;;;;;;;;;;4148137;28;20049;-64
2023/10/08 03:03:46;;;;;;;11.40;10.80;;;;;;;;;;4148005;28;20065;-64
2023/10/08 03:05:49;;;;;;;10.43;9.75;;;;;;;;;;4147994;28;20037;-64
2023/10/08 03:07:51;;;;;;;;;;;;;;;;;;4161737;28;20118;-63
2023/10/08 03:12:32;;;;;;;11.30;10.43;;;;;;;;;;4129698;28;20474;-64
2023/10/08 03:14:47;;;;;;;10.80;10.23;;;;;;;;;;4116819;28;20065;-64
2023/10/08 03:16:51;;;;;;;11.90;10.77;;;;;;;;;;4113583;28;20042;-63
2023/10/08 03:18:54;;;;;;;12.07;10.88;;;;;;;;;;4113655;28;20051;-65
2023/10/08 03:21:03;;;;;;;10.73;10.15;;;;;;;;;;4113631;28;20483;-63
2023/10/08 03:23:23;;;;;;;9.52;9.07;;;;;;;;;;4113783;28;20058;-63
2023/10/08 03:25:26;;;;;;;9.80;9.40;;;;;;;;;;4113758;28;20122;-64
2023/10/08 03:27:28;;;;;;;;;;;;;;;;;;4114068;28;20507;-63
2023/10/08 03:29:30;;;;;;;9.95;9.35;;;;;;;;;;4113640;28;19929;-63
2023/10/08 03:31:49;;;;;;;;;;;;;;;;;;4114081;28;20145;-64
2023/10/08 03:33:51;;;;;;;11.40;10.27;;;;;;;;;;4113640;28;20370;-63
2023/10/08 03:35:55;;;;;;;10.82;10.30;;;;;;;;;;4097701;29;20541;-64
2023/10/08 03:38:18;;;;;;;9.77;9.27;;;;;;;;;;4113433;28;20043;-64
2023/10/08 03:40:31;;;;;;;11.40;10.52;;;;;;;;;;4113269;28;20158;-64
2023/10/08 03:42:40;;;;;;;11.20;10.40;;;;;;;;;;4113526;28;20066;-65
2023/10/08 03:44:42;;;;;;;11.57;10.88;;;;;;;;;;4113514;28;20039;-65
2023/10/08 03:46:46;;;;;;;10.48;9.85;;;;;;;;;;4123297;28;20047;-65
2023/10/08 03:48:51;;;;;;;9.55;8.90;;;;;;;;;;4144183;28;20407;-63
2023/10/08 03:51:06;;;;;;;10.70;10.10;;;;;;;;;;4147568;28;20494;-64
2023/10/08 03:53:16;;;;;;;9.57;9.05;;;;;;;;;;4141280;28;20088;-64
2023/10/08 03:57:25;;;;;;;11.40;10.77;;;;;;;;;;4131433;28;20042;-63
2023/10/08 03:59:30;;;;;;;10.85;10.05;;;;;;;;;;4143368;28;20045;-64
2023/10/08 04:01:34;;;;;;;10.23;9.75;;;;;;;;;;4147611;28;20149;-64
2023/10/08 04:03:57;;;;;;;11.98;11.27;;;;;;;;;;4147309;28;20422;-64
2023/10/08 04:06:14;;;;;;;10.75;9.55;;;;;;;;;;4162198;28;20493;-65
2023/10/08 04:08:42;;;;;;;12.40;11.70;;;;;;;;;;4163829;28;20038;-63
2023/10/08 04:12:50;;;;;;;10.43;9.93;;;;;;;;;;4147516;28;20038;-64
2023/10/08 04:14:55;;;;;;;10.55;9.95;;;;;;;;;;4147482;28;20046;-65
2023/10/08 04:16:58;;;;;;;11.80;10.88;;;;;;;;;;4162007;28;20493;-65
2023/10/08 04:19:03;;;;;;;10.73;10.13;;;;;;;;;;4147269;28;20080;-64
2023/10/08 04:21:05;;;;;;;10.30;9.63;;;;;;;;;;4148713;28;20056;-64
2023/10/08 04:23:13;;;;;;;12.30;11.57;;;;;;;;;;4150497;28;20034;-64
2023/10/08 04:25:19;;;;;;;10.50;10.00;;;;;;;;;;4150735;28;20038;-64
2023/10/08 04:27:22;;;;;;;12.20;11.40;;;;;;;;;;4132926;28;20109;-64
2023/10/08 04:29:25;;;;;;;10.77;10.02;;;;;;;;;;4150424;28;20057;-64
2023/10/08 04:31:37;;;;;;;9.52;8.98;;;;;;;;;;4150409;28;20077;-64
2023/10/08 04:33:40;;;;;;;9.77;9.37;;;;;;;;;;4139435;28;20054;-63
2023/10/08 04:35:55;;;;;;;10.98;10.13;;;;;;;;;;4134090;28;20285;-63
2023/10/08 04:37:57;;;;;;;8.98;8.45;;;;;;;;;;4134009;28;20042;-63
2023/10/08 04:39:59;;;;;;;10.18;9.57;;;;;;;;;;4133718;28;20034;-64
2023/10/08 04:42:10;;;;;;;10.90;10.27;;;;;;;;;;4147415;28;20376;-64
2023/10/08 04:44:15;;;;;;;10.60;10.10;;;;;;;;;;4144934;28;20084;-64
2023/10/08 04:46:33;;;;;;;10.13;9.50;;;;;;;;;;4145609;28;20046;-65
2023/10/08 04:48:36;;;;;;;11.48;10.77;;;;;;;;;;4143474;28;20513;-64
2023/10/08 04:50:38;;;;;;;12.20;11.45;;;;;;;;;;4149996;28;20038;-64
2023/10/08 04:52:46;;;;;;;11.90;10.73;;;;;;;;;;4165182;28;20137;-64
2023/10/08 04:54:54;;;;;;;10.85;10.05;;;;;;;;;;4150208;28;20041;-64
2023/10/08 04:57:00;;;;;;;10.63;10.02;;;;;;;;;;4149875;28;20050;-64
2023/10/08 04:59:05;;;;;;;11.50;10.70;;;;;;;;;;4149754;28;20490;-64
2023/10/08 05:03:23;;;;;;;9.52;9.02;;;;;;;;;;4149713;28;20561;-64
2023/10/08 05:05:38;;;;;;;10.13;9.60;;;;;;;;;;4159774;28;20025;-64
2023/10/08 05:12:28;;;;;;;10.63;9.80;;;;;;;;;;4135837;28;20046;-64
2023/10/08 05:17:22;;;;;;;10.43;9.68;;;;;;;;;;4148718;28;20045;-64
2023/10/08 05:21:28;;;;;;;10.38;9.77;;;;;;;;;;4149228;28;20116;-65
2023/10/08 05:25:53;;;;;;;10.63;10.13;;;;;;;;;;4149522;28;20650;-64
2023/10/08 05:30:16;;;;;;;10.27;9.77;;;;;;;;;;4149485;28;20509;-65
2023/10/08 05:32:37;;;;;;;9.55;8.93;;;;;;;;;;4148345;28;20042;-65
2023/10/08 05:34:50;;;;;;;9.75;9.45;;;;;;;;;;4136466;28;20042;-64
2023/10/08 05:41:38;;;;;;;11.00;10.23;;;;;;;;;;4146672;28;20034;-64
2023/10/08 05:45:52;;;;;;;11.30;10.60;;;;;;;;;;4145630;28;20053;-64
2023/10/08 05:48:13;;;;;;;13.98;11.82;;;;;;;;;;4133513;28;20471;-65
2023/10/08 05:52:40;;;;;;;12.48;11.82;;;;;;;;;;4132941;28;20521;-63
2023/10/08 05:55:13;;;;;;;11.93;10.95;;;;;;;;;;4133034;28;20541;-64
2023/10/08 05:59:17;;;;;;;12.13;11.38;;;;;;;;;;4133181;28;20519;-64
2023/10/08 06:01:39;;;;;;;12.15;11.07;;;;;;;;;;4132779;28;20049;-64
2023/10/08 06:08:15;;;;;;;11.27;10.48;;;;;;;;;;4148925;28;20034;-65
2023/10/08 06:12:49;;;;;;;11.23;10.73;;;;;;;;;;4142464;28;20132;-64
2023/10/08 06:15:07;;;;;;;10.57;9.93;;;;;;;;;;4148791;28;20053;-65
2023/10/08 06:19:38;;;;;;;10.35;9.75;;;;;;;;;;4126004;28;20536;-64
2023/10/08 06:21:41;;;;;;;10.85;10.13;;;;;;;;;;4148723;28;20117;-64
2023/10/08 06:23:42;;;;;;;11.32;10.70;;;;;;;;;;4148724;28;20038;-64
2023/10/08 06:25:44;;;;;;;12.15;11.20;;;;;;;;;;4142414;28;20068;-65
2023/10/08 06:27:46;;;;;;;12.32;11.45;;;;;;;;;;4143667;28;20042;-64
2023/10/08 06:29:48;;;;;;;11.23;10.63;;;;;;;;;;4148333;28;20542;-64
2023/10/08 06:31:55;;;;;;;10.37;9.77;;;;;;;;;;4148394;28;20133;-64
2023/10/08 06:33:57;;;;;;;11.65;11.10;;;;;;;;;;4146202;28;20725;-64
2023/10/08 06:36:02;;;;;;;12.68;11.93;;;;;;;;;;4148490;28;20502;-66
2023/10/08 06:38:09;;;;;;;13.43;12.73;;;;;;;;;;4146282;28;20098;-64
2023/10/08 06:40:40;;;;;;;13.10;12.27;;;;;;;;;;4142164;28;20529;-64
2023/10/08 06:42:35;;;;;;;12.35;11.82;;;;;;;;;;4132083;28;20051;-65
2023/10/08 06:44:38;;;;;;;12.15;11.55;;;;;;;;;;4132261;28;20035;-64
2023/10/08 06:46:41;;;;;;;12.13;11.48;;;;;;;;;;4147435;28;20498;-64
2023/10/08 06:48:43;;;;;;;12.77;11.95;;;;;;;;;;4148278;28;20053;-64
2023/10/08 06:50:45;;;;;;;12.25;11.35;;;;;;;;;;4148262;28;20148;-64
2023/10/08 06:52:49;;;;;;;11.70;11.05;;;;;;;;;;4148451;28;20486;-64
2023/10/08 06:54:53;;;;;;;11.55;11.05;;;;;;;;;;4148199;28;20572;-65
2023/10/08 06:56:55;;;;;;;10.80;10.40;;;;;;;;;;4148040;28;20045;-64
2023/10/08 06:58:59;;;;;;;11.60;10.93;;;;;;;;;;4148244;28;20038;-65
2023/10/08 07:01:04;;;;;;;11.20;10.60;;;;;;;;;;4147863;28;20038;-64
2023/10/08 07:03:08;;;;;;;12.75;12.05;;;;;;;;;;4141844;28;20046;-64
2023/10/08 07:05:11;;;;;;;12.88;12.07;;;;;;;;;;4142819;28;20030;-64
2023/10/08 07:07:18;;;;;;;12.63;11.95;;;;;;;;;;4142613;28;20037;-65
2023/10/08 07:09:29;;;;;;;12.00;11.23;;;;;;;;;;4147933;28;20048;-64
2023/10/08 07:11:34;;;;;;;11.63;11.02;;;;;;;;;;4141396;28;20125;-64
2023/10/08 07:13:39;;;;;;;14.73;13.57;;;;;;;;;;4147691;28;20046;-63
2023/10/08 07:15:40;;;;;;;11.82;11.23;;;;;;;;;;4147695;28;20054;-65
2023/10/08 07:17:43;;;;;;;13.40;12.47;;;;;;;;;;4144326;28;20466;-64
2023/10/08 07:19:50;;;;;;;;;;;;;;;;;;4141734;28;20295;-64
2023/10/08 07:21:54;;;;;;;12.52;11.70;;;;;;;;;;4145979;28;19929;-65
2023/10/08 07:23:56;;;;;;;11.82;11.15;;;;;;;;;;4147521;28;20054;-64
2023/10/08 07:26:10;;;;;;;10.23;9.52;;;;;;;;;;4147713;28;20452;-64
2023/10/08 07:28:12;;;;;;;11.02;10.57;;;;;;;;;;4145864;28;20088;-63
2023/10/08 07:30:26;;;;;;;10.93;10.43;;;;;;;;;;4141240;28;20038;-64
2023/10/08 07:32:30;;;;;;;11.05;10.65;;;;;;;;;;4144636;28;20049;-63
2023/10/08 07:34:32;;;;;;;12.00;10.93;;;;;;;;;;4141671;28;20074;-64
2023/10/08 07:36:34;;;;;;;11.25;10.70;;;;;;;;;;4138902;28;20045;-64
2023/10/08 07:38:37;;;;;;;11.95;10.98;;;;;;;;;;4147507;28;20104;-64
2023/10/08 07:40:38;;;;;;;10.68;10.25;;;;;;;;;;4145610;28;20041;-64
2023/10/08 07:42:40;;;;;;;10.25;9.55;;;;;;;;;;4136769;28;20485;-63
2023/10/08 07:44:43;;;;;;;9.93;9.45;;;;;;;;;;4146837;28;20038;-64
2023/10/08 07:46:44;;;;;;;;;;;;;;;;;;4147891;28;20042;-64
2023/10/08 07:48:46;;;;;;;9.75;8.95;;;;;;;;;;4141152;28;19972;-63
2023/10/08 07:50:50;;;;;;;8.63;8.27;;;;;;;;;;4147325;28;20048;-63
2023/10/08 07:52:52;;;;;;;10.13;9.30;;;;;;;;;;4137846;28;20038;-65
2023/10/08 07:54:54;;;;;;;8.43;8.10;;;;;;;;;;4146977;28;20038;-64
2023/10/08 07:59:33;;;;;;;9.10;8.70;;;;;;;;;;4114473;28;20090;-63
2023/10/08 08:01:34;;;;;;;9.70;9.20;;;;;;;;;;4115676;28;20082;-63
2023/10/08 08:03:36;;;;;;;13.65;9.02;;;;;;;;;;4116207;28;20082;-63
2023/10/08 08:05:40;;;;;;;9.07;8.57;;;;;;;;;;4123207;28;20419;-64
2023/10/08 08:07:45;;;;;;;8.60;8.18;;;;;;;;;;4122401;28;20063;-63
2023/10/08 08:09:52;;;;;;;7.15;6.95;;;;;;;;;;4116367;28;20059;-63
2023/10/08 08:11:57;;;;;;;7.20;6.90;;;;;;;;;;4116266;28;20408;-63
2023/10/08 08:14:00;;;;;;;8.95;8.30;;;;;;;;;;4115841;28;20050;-63
2023/10/08 08:16:16;;;;;;;7.53;7.22;;;;;;;;;;4115395;28;20039;-66
2023/10/08 08:18:22;;;;;;;8.63;8.15;;;;;;;;;;4115546;28;20134;-68
2023/10/08 08:20:34;;;;;;;9.75;8.95;;;;;;;;;;4116116;28;20519;-70
2023/10/08 08:22:40;;;;;;;7.90;7.53;;;;;;;;;;4115581;28;20130;-69
2023/10/08 08:24:45;;;;;;;7.45;7.20;;;;;;;;;;4116493;28;20047;-69
2023/10/08 08:27:01;;;;;;;8.32;8.00;;;;;;;;;;4113377;28;20057;-69
2023/10/08 08:29:03;;;;;;;8.88;8.48;;;;;;;;;;4115159;28;20065;-68
2023/10/08 08:31:13;;;;;;;8.50;7.85;;;;;;;;;;4114519;28;20058;-69
2023/10/08 08:33:22;;;;;;;11.70;7.55;;;;;;;;;;4114390;28;20050;-69
2023/10/08 08:35:24;;;;;;;8.30;7.90;;;;;;;;;;4134265;28;20038;-69
2023/10/08 08:37:29;;;;;;;7.85;7.45;;;;;;;;;;4134042;28;20129;-69
2023/10/08 08:39:35;;;;;;;7.68;7.38;;;;;;;;;;4133794;28;20050;-69
2023/10/08 08:41:37;;;;;;;7.75;7.35;;;;;;;;;;4134208;28;20100;-69
2023/10/08 08:43:44;;;;;;;7.90;7.63;;;;;;;;;;4134012;28;20073;-69
2023/10/08 08:45:49;;;;;;;7.93;7.63;;;;;;;;;;4133044;28;20502;-69
2023/10/08 08:47:51;;;;;;;8.45;7.63;;;;;;;;;;4149312;28;20126;-69
2023/10/08 08:49:55;;;;;;;8.25;7.85;;;;;;;;;;4149924;28;20038;-69
2023/10/08 08:52:00;;;;;;;6.55;6.15;;;;;;;;;;4150034;28;20584;-69
2023/10/08 08:54:06;;;;;;;6.50;6.18;;;;;;;;;;4150205;28;20410;-68
2023/10/08 08:56:12;;;;;;;6.15;5.95;;;;;;;;;;4150051;28;20038;-68
2023/10/08 08:58:14;;;;;;;6.72;6.43;;;;;;;;;;4149985;28;20068;-68
2023/10/08 09:00:17;;;;;;;6.00;5.75;;;;;;;;;;4149867;28;20046;-68
2023/10/08 09:02:18;;;;;;;7.00;6.60;;;;;;;;;;4149620;28;20589;-68
2023/10/08 09:04:32;;;;;;;6.30;5.50;;;;;;;;;;4149904;28;20104;-68
2023/10/08 09:06:37;;;;;;;6.25;5.97;;;;;;;;;;4149429;28;20046;-70
2023/10/08 09:08:42;;;;;;;6.22;5.70;;;;;;;;;;4149058;28;20077;-70
2023/10/08 09:10:53;;;;;;;5.50;5.20;;;;;;;;;;4149797;28;20038;-68
2023/10/08 09:12:59;;;;;;;6.50;6.00;;;;;;;;;;4149856;28;20512;-70
2023/10/08 09:15:02;;;;;;;6.90;6.70;;;;;;;;;;4149930;28;20088;-70
2023/10/08 09:17:05;;;;;;;5.97;5.43;;;;;;;;;;4150089;28;20053;-70
2023/10/08 09:19:11;;;;;;;5.72;5.43;;;;;;;;;;4149781;28;20048;-70
2023/10/08 09:21:15;;;;;;;6.05;5.75;;;;;;;;;;4149626;28;20042;-68
2023/10/08 09:23:21;;;;;;;5.40;5.03;;;;;;;;;;4143119;28;20038;-69
2023/10/08 09:25:24;;;;;;;6.07;5.88;;;;;;;;;;4147962;28;20057;-69
2023/10/08 09:27:26;;;;;;;6.18;5.65;;;;;;;;;;4148037;28;20038;-69
2023/10/08 09:29:28;;;;;;;5.60;5.40;;;;;;;;;;4149574;28;20048;-70
2023/10/08 09:31:35;;;;;;;5.38;5.07;;;;;;;;;;4149362;28;20755;-69
2023/10/08 09:33:37;;;;;;;5.40;5.20;;;;;;;;;;4149359;28;20073;-69
2023/10/08 09:35:39;;;;;;;4.75;4.50;;;;;;;;;;4148562;28;20068;-70
2023/10/08 09:37:41;;;;;;;4.90;4.70;;;;;;;;;;4148900;28;20120;-70
2023/10/08 09:39:45;;;;;;;4.80;4.60;;;;;;;;;;4149152;28;20068;-70
2023/10/08 09:41:48;;;;;;;5.80;5.25;;;;;;;;;;4149146;28;20045;-70
2023/10/08 09:43:49;;;;;;;;;;;;;;;;;;4148710;28;20478;-69
2023/10/08 09:46:07;;;;;;;5.50;4.85;;;;;;;;;;4149287;28;19921;-70
2023/10/08 09:48:14;;;;;;;5.13;4.72;;;;;;;;;;4146172;28;20048;-69
2023/10/08 09:50:16;;;;;;;3.58;3.47;;;;;;;;;;4144141;28;20050;-68
2023/10/08 09:52:23;;;;;;;4.15;4.05;;;;;;;;;;4144373;28;20042;-69
2023/10/08 09:54:32;;;;;;;4.78;4.57;;;;;;;;;;4148014;28;20037;-70
2023/10/08 09:56:35;;;;;;;4.38;4.10;;;;;;;;;;4149338;28;20065;-69
2023/10/08 09:58:36;;;;;;;4.00;3.50;;;;;;;;;;4149172;28;20124;-69
2023/10/08 10:00:38;;;;;;;3.95;3.85;;;;;;;;;;4148917;28;20445;-69
2023/10/08 10:02:43;;;;;;;4.20;4.00;;;;;;;;;;4147461;28;20756;-70
2023/10/08 10:04:45;;;;;;;4.22;4.13;;;;;;;;;;4153503;28;20091;-70
2023/10/08 10:06:47;;;;;;;3.25;3.15;;;;;;;;;;4151407;28;20045;-69
2023/10/08 10:08:48;;;;;;;4.72;4.53;;;;;;;;;;4141797;28;20733;-70
2023/10/08 10:10:57;;;;;;;4.15;3.80;;;;;;;;;;4138932;28;20050;-70
2023/10/08 10:13:00;;;;;;;3.17;3.00;;;;;;;;;;4146000;28;20042;-70
2023/10/08 10:15:01;;;;;;;5.07;3.80;;;;;;;;;;4145081;28;20045;-70
2023/10/08 10:17:11;;;;;;;3.30;3.20;;;;;;;;;;4139847;28;20033;-70
2023/10/08 10:19:20;;;;;;;3.45;3.33;;;;;;;;;;4144267;28;20069;-70
2023/10/08 10:21:27;;;;;;;3.60;3.50;;;;;;;;;;4142699;28;20572;-69
2023/10/08 10:23:36;;;;;;;3.53;3.42;;;;;;;;;;4146085;28;20059;-71
2023/10/08 10:25:43;;;;;;;2.78;2.67;;;;;;;;;;4145234;28;20045;-71
2023/10/08 10:27:51;;;;;;;3.40;3.30;;;;;;;;;;4147710;28;20506;-70
2023/10/08 10:30:03;;;;;;;2.90;2.80;;;;;;;;;;4148547;28;20042;-70
2023/10/08 10:32:05;;;;;;;;;;;;;;;;;;4147237;28;20084;-70
2023/10/08 10:34:10;;;;;;;4.53;4.37;;;;;;;;;;4133215;28;20045;-71
2023/10/08 10:36:13;;;;;;;3.65;3.45;;;;;;;;;;4132455;28;20058;-71
2023/10/08 10:38:18;;;;;;;3.80;3.60;;;;;;;;;;4132215;28;20046;-71
2023/10/08 10:40:28;;;;;;;3.63;3.38;;;;;;;;;;4143434;28;20506;-71
2023/10/08 10:42:38;;;;;;;3.08;2.95;;;;;;;;;;4147782;28;20034;-70
2023/10/08 10:44:42;;;;;;;3.00;2.90;;;;;;;;;;4148288;28;20050;-70
2023/10/08 10:46:50;;;;;;;2.63;2.53;;;;;;;;;;4148322;28;20042;-69
2023/10/08 10:51:29;;;;;;;2.75;2.55;;;;;;;;;;4105918;28;20043;-70
2023/10/08 10:53:31;;;;;;;;;;;;;;;;;;4132597;28;20080;-70
2023/10/08 10:55:32;;;;;;;2.70;2.50;;;;;;;;;;4147135;28;19969;-71
2023/10/08 10:57:41;;;;;;;4.55;2.38;;;;;;;;;;4148207;28;20042;-70
2023/10/08 10:59:52;;;;;;;4.95;2.40;;;;;;;;;;4148202;28;20502;-70
2023/10/08 11:04:19;;;;;;;2.85;2.30;;;;;;;;;;4147458;28;20088;-71
2023/10/08 11:06:25;;;;;;;2.20;2.10;;;;;;;;;;4144933;28;20034;-70
2023/10/08 11:08:34;;;;;;;2.17;2.08;;;;;;;;;;4147502;28;20493;-70
2023/10/08 11:10:46;;;;;;;2.67;2.05;;;;;;;;;;4148154;28;20088;-70
2023/10/08 11:12:53;;;;;;;2.28;2.17;;;;;;;;;;4147979;28;20046;-70
2023/10/08 11:14:56;;;;;;;2.42;2.33;;;;;;;;;;4147045;28;20038;-70
2023/10/08 11:16:58;;;;;;;2.38;2.28;;;;;;;;;;4131883;28;20038;-70
2023/10/08 11:19:06;;;;;;;2.28;2.17;;;;;;;;;;4145284;28;20054;-70
2023/10/08 11:21:15;;;;;;;2.75;2.55;;;;;;;;;;4145919;28;20096;-70
2023/10/08 11:23:36;;;;;;;2.25;2.15;;;;;;;;;;4146798;28;20429;-71
2023/10/08 11:25:43;;;;;;;1.90;1.80;;;;;;;;;;4131638;28;20121;-70
2023/10/08 11:27:45;;;;;;;2.03;1.92;;;;;;;;;;4136944;28;20044;-70
2023/10/08 11:29:47;;;;;;;2.30;2.20;;;;;;;;;;4146758;28;20084;-70
2023/10/08 11:31:49;;;;;;;2.05;1.88;;;;;;;;;;4146666;28;20498;-70
2023/10/08 11:33:54;;;;;;;3.03;2.88;;;;;;;;;;4146257;28;20038;-70
2023/10/08 11:36:06;;;;;;;3.17;2.97;;;;;;;;;;4146887;28;20061;-71
2023/10/08 11:38:14;;;;;;;;;;;;;;;;;;4148175;28;20042;-69
2023/10/08 11:40:28;;;;;;;2.78;1.95;;;;;;;;;;4146530;28;19926;-70
2023/10/08 11:44:39;;;;;;;2.25;2.05;;;;;;;;;;4147224;28;20108;-70
2023/10/08 11:46:41;;;;;;;3.10;3.00;;;;;;;;;;4147388;28;20053;-70
2023/10/08 11:48:46;;;;;;;2.50;2.33;;;;;;;;;;4147652;28;20414;-70
2023/10/08 11:50:50;;;;;;;1.80;1.70;;;;;;;;;;4146170;28;20692;-70
2023/10/08 11:52:53;;;;;;;1.88;1.77;;;;;;;;;;4147603;28;20048;-71
2023/10/08 11:54:55;;;;;;;2.17;2.08;;;;;;;;;;4147741;28;20053;-69
2023/10/08 11:56:56;;;;;;;;;;;;;;;;;;4147024;28;20058;-71
2023/10/08 11:59:00;;;;;;;4.63;2.00;;;;;;;;;;4147592;28;19925;-70
2023/10/08 12:01:03;;;;;;;1.83;1.70;;;;;;;;;;4146701;28;20042;-69
2023/10/08 12:03:05;;;;;;;4.28;1.70;;;;;;;;;;4146509;28;20050;-70
2023/10/08 12:05:07;;;;;;;1.90;1.80;;;;;;;;;;4154433;28;20072;-70
2023/10/08 12:07:09;;;;;;;2.53;2.15;;;;;;;;;;4148602;28;20037;-70
2023/10/08 12:09:12;;;;;;;2.35;1.38;;;;;;;;;;4147386;28;20038;-71
2023/10/08 12:11:15;;;;;;;1.33;1.23;;;;;;;;;;4137950;28;20038;-69
2023/10/08 12:13:18;;;;;;;2.45;1.38;;;;;;;;;;4131374;28;20121;-70
2023/10/08 12:15:21;;;;;;;1.30;1.30;;;;;;;;;;4144711;28;20144;-70
2023/10/08 12:17:37;;;;;;;2.70;1.77;;;;;;;;;;4147373;28;20392;-70
2023/10/08 12:19:40;;;;;;;4.40;1.77;;;;;;;;;;4147453;28;20088;-70
2023/10/08 12:21:42;;;;;;;1.85;1.60;;;;;;;;;;4144504;28;20077;-70
2023/10/08 12:23:46;;;;;;;2.08;1.83;;;;;;;;;;4147518;28;20042;-70
2023/10/08 12:25:51;;;;;;;1.92;1.77;;;;;;;;;;4147283;28;20034;-70
2023/10/08 12:27:54;;;;;;;2.08;1.58;;;;;;;;;;4143591;28;20073;-70
2023/10/08 12:29:58;;;;;;;2.65;2.50;;;;;;;;;;4149958;28;20038;-71
2023/10/08 12:32:03;;;;;;;2.40;2.30;;;;;;;;;;4147242;28;20046;-70
2023/10/08 12:34:04;;;;;;;1.92;1.83;;;;;;;;;;4143854;28;20045;-69
2023/10/08 12:36:12;;;;;;;2.33;1.80;;;;;;;;;;4145229;28;20046;-70
2023/10/08 12:38:14;;;;;;;1.85;1.75;;;;;;;;;;4147091;28;20045;-70
2023/10/08 12:40:31;;;;;;;2.15;1.70;;;;;;;;;;4144314;28;20041;-69
2023/10/08 12:42:33;;;;;;;1.73;1.67;;;;;;;;;;4149224;28;20046;-71
2023/10/08 12:44:36;;;;;;;2.53;2.05;;;;;;;;;;4150301;28;20075;-70
2023/10/08 12:46:38;;;;;;;1.95;1.85;;;;;;;;;;4148559;28;20069;-70
2023/10/08 12:48:39;;;;;;;1.75;1.65;;;;;;;;;;4141751;28;20070;-70
2023/10/08 12:50:44;;;;;;;2.45;1.42;;;;;;;;;;4133953;28;20038;-70
2023/10/08 12:52:52;;;;;;;1.98;1.88;;;;;;;;;;4142680;28;20041;-69
2023/10/08 12:54:55;;;;;;;2.17;1.98;;;;;;;;;;4149916;28;20042;-70
2023/10/08 12:56:58;;;;;;;3.70;2.92;;;;;;;;;;4147197;28;20068;-70
2023/10/08 12:59:04;;;;;;;2.90;1.77;;;;;;;;;;4147148;28;20049;-71
2023/10/08 13:01:07;;;;;;;1.60;1.50;;;;;;;;;;4147007;28;20498;-70
2023/10/08 13:03:15;;;;;;;2.13;2.03;;;;;;;;;;4149698;28;20052;-70
2023/10/08 13:05:21;;;;;;;2.58;1.83;;;;;;;;;;4158841;28;20517;-70
2023/10/08 13:07:22;;;;;;;1.85;1.75;;;;;;;;;;4152571;28;20042;-70
2023/10/08 13:09:24;;;;;;;2.25;1.60;;;;;;;;;;4149811;28;20050;-71
2023/10/08 13:11:29;;;;;;;1.98;1.38;;;;;;;;;;4147867;28;20053;-71
2023/10/08 13:13:32;;;;;;;1.98;1.88;;;;;;;;;;4145200;28;20040;-70
2023/10/08 13:15:35;;;;;;;1.65;1.55;;;;;;;;;;4146499;28;20065;-71
2023/10/08 13:17:36;;;;;;;3.38;2.40;;;;;;;;;;4136864;28;20052;-71
2023/10/08 13:19:38;;;;;;;3.15;1.33;;;;;;;;;;4141901;28;20037;-71
2023/10/08 13:21:40;;;;;;;2.30;2.03;;;;;;;;;;4137748;28;20038;-70
2023/10/08 13:23:42;;;;;;;2.25;1.58;;;;;;;;;;4140588;28;20069;-71
2023/10/08 13:25:46;;;;;;;1.95;1.85;;;;;;;;;;4144005;28;20152;-71
2023/10/08 13:27:48;;;;;;;1.67;1.60;;;;;;;;;;4147728;28;20042;-69
2023/10/08 13:29:51;;;;;;;1.40;1.33;;;;;;;;;;4144258;28;20033;-71